sensor_id;sensor_type;location;lat;lon;timestamp;pressure;altitude;pressure_sealevel;temperature;humidity
15382;BME280;7789;51.364;12.358;2023-02-20T00:03:45;101050.09;;;6.71;100.00
15382;BME280;7789;51.364;12.358;2023-02-20T00:08:48;101061.88;;;6.61;100.00
15382;BME280;7789;51.364;12.358;2023-02-20T00:13:51;101056.63;;;6.63;100.00
15382;BME280;7789;51.364;12.358;2023-02-20T00:18:56;101045.72;;;6.72;100.00
15382;BME280;7789;51.364;12.358;2023-02-20T00:23:59;101051.50;;;6.77;100.00
15382;BME280;7789;51.364;12.358;2023-02-20T00:29:03;101051.25;;;6.81;100.00
15382;BME280;7789;51.364;12.358;2023-02-20T00:34:07;101043.28;;;6.84;100.00
15382;BME280;7789;51.364;12.358;2023-02-20T00:39:11;101030.31;;;6.84;100.00
15382;BME280;7789;51.364;12.358;2023-02-20T00:44:14;101022.56;;;6.83;100.00
15382;BME280;7789;51.364;12.358;2023-02-20T00:49:19;101017.13;;;6.87;100.00
15382;BME280;7789;51.364;12.358;2023-02-20T00:54:22;101005.56;;;6.93;100.00
15382;BME280;7789;51.364;12.358;2023-02-20T00:59:25;101004.44;;;6.97;100.00
15382;BME280;7789;51.364;12.358;2023-02-20T01:04:30;101002.41;;;7.02;100.00
15382;BME280;7789;51.364;12.358;2023-02-20T01:09:33;100993.69;;;7.03;100.00
15382;BME280;7789;51.364;12.358;2023-02-20T01:14:37;101001.31;;;7.06;100.00
15382;BME280;7789;51.364;12.358;2023-02-20T01:19:44;101002.09;;;7.08;100.00
15382;BME280;7789;51.364;12.358;2023-02-20T01:24:47;100994.00;;;7.12;100.00
15382;BME280;7789;51.364;12.358;2023-02-20T01:29:50;100999.06;;;7.15;100.00
15382;BME280;7789;51.364;12.358;2023-02-20T01:34:55;101004.63;;;7.23;100.00
15382;BME280;7789;51.364;12.358;2023-02-20T01:39:58;100991.38;;;7.28;100.00
15382;BME280;7789;51.364;12.358;2023-02-20T01:45:24;100998.72;;;7.35;100.00
15382;BME280;7789;51.364;12.358;2023-02-20T01:50:35;100992.34;;;7.40;100.00
15382;BME280;7789;51.364;12.358;2023-02-20T01:55:42;100978.03;;;7.47;100.00
15382;BME280;7789;51.364;12.358;2023-02-20T02:00:46;100962.78;;;7.55;100.00
15382;BME280;7789;51.364;12.358;2023-02-20T02:05:57;100957.22;;;7.61;100.00
15382;BME280;7789;51.364;12.358;2023-02-20T02:11:04;100943.09;;;7.65;100.00
15382;BME280;7789;51.364;12.358;2023-02-20T02:16:16;100942.09;;;7.68;100.00
15382;BME280;7789;51.364;12.358;2023-02-20T02:27:35;100922.66;;;7.73;100.00
15382;BME280;7789;51.364;12.358;2023-02-20T02:38:24;100909.34;;;7.78;100.00
15382;BME280;7789;51.364;12.358;2023-02-20T02:43:35;100906.22;;;7.73;100.00
15382;BME280;7789;51.364;12.358;2023-02-20T02:48:45;100907.59;;;7.78;100.00
15382;BME280;7789;51.364;12.358;2023-02-20T02:54:09;100898.13;;;7.77;100.00
15382;BME280;7789;51.364;12.358;2023-02-20T02:59:17;100892.00;;;7.78;100.00
15382;BME280;7789;51.364;12.358;2023-02-20T03:04:23;100889.00;;;7.84;100.00
15382;BME280;7789;51.364;12.358;2023-02-20T03:09:36;100903.41;;;7.90;100.00
15382;BME280;7789;51.364;12.358;2023-02-20T03:14:43;100903.28;;;7.91;100.00
15382;BME280;7789;51.364;12.358;2023-02-20T03:20:09;100882.31;;;7.94;100.00
15382;BME280;7789;51.364;12.358;2023-02-20T03:25:17;100871.78;;;7.96;100.00
15382;BME280;7789;51.364;12.358;2023-02-20T03:30:27;100871.56;;;7.99;100.00
15382;BME280;7789;51.364;12.358;2023-02-20T03:35:34;100867.03;;;8.02;100.00
15382;BME280;7789;51.364;12.358;2023-02-20T03:40:58;100859.13;;;8.04;100.00
15382;BME280;7789;51.364;12.358;2023-02-20T03:46:21;100869.22;;;8.08;100.00
15382;BME280;7789;51.364;12.358;2023-02-20T03:51:26;100877.69;;;8.12;100.00
15382;BME280;7789;51.364;12.358;2023-02-20T03:56:33;100890.50;;;8.15;100.00
15382;BME280;7789;51.364;12.358;2023-02-20T04:01:40;100900.66;;;8.19;100.00
15382;BME280;7789;51.364;12.358;2023-02-20T04:06:47;100902.13;;;8.23;100.00
15382;BME280;7789;51.364;12.358;2023-02-20T04:11:58;100895.72;;;8.29;100.00
15382;BME280;7789;51.364;12.358;2023-02-20T04:17:05;100880.59;;;8.34;100.00
15382;BME280;7789;51.364;12.358;2023-02-20T04:22:15;100879.78;;;8.33;100.00
15382;BME280;7789;51.364;12.358;2023-02-20T04:27:22;100873.44;;;8.37;100.00
15382;BME280;7789;51.364;12.358;2023-02-20T04:32:25;100880.88;;;8.43;100.00
15382;BME280;7789;51.364;12.358;2023-02-20T04:37:28;100868.59;;;8.45;100.00
15382;BME280;7789;51.364;12.358;2023-02-20T04:42:32;100853.56;;;8.49;100.00
15382;BME280;7789;51.364;12.358;2023-02-20T04:47:35;100869.03;;;8.52;100.00
15382;BME280;7789;51.364;12.358;2023-02-20T04:52:39;100862.75;;;8.54;100.00
15382;BME280;7789;51.364;12.358;2023-02-20T04:57:43;100839.22;;;8.56;100.00
15382;BME280;7789;51.364;12.358;2023-02-20T05:02:47;100829.63;;;8.56;100.00
15382;BME280;7789;51.364;12.358;2023-02-20T05:07:53;100824.63;;;8.53;100.00
15382;BME280;7789;51.364;12.358;2023-02-20T05:12:58;100812.53;;;8.52;100.00
15382;BME280;7789;51.364;12.358;2023-02-20T05:18:02;100820.13;;;8.55;100.00
15382;BME280;7789;51.364;12.358;2023-02-20T05:23:05;100797.63;;;8.54;100.00
15382;BME280;7789;51.364;12.358;2023-02-20T05:28:10;100788.88;;;8.55;100.00
15382;BME280;7789;51.364;12.358;2023-02-20T05:33:13;100790.75;;;8.53;100.00
15382;BME280;7789;51.364;12.358;2023-02-20T05:38:17;100794.28;;;8.52;100.00
15382;BME280;7789;51.364;12.358;2023-02-20T05:43:21;100799.28;;;8.55;100.00
15382;BME280;7789;51.364;12.358;2023-02-20T05:48:24;100807.31;;;8.52;100.00
15382;BME280;7789;51.364;12.358;2023-02-20T05:53:29;100795.66;;;8.58;100.00
15382;BME280;7789;51.364;12.358;2023-02-20T05:58:34;100793.25;;;8.55;100.00
15382;BME280;7789;51.364;12.358;2023-02-20T06:03:37;100785.31;;;8.56;100.00
15382;BME280;7789;51.364;12.358;2023-02-20T06:08:40;100752.84;;;8.87;100.00
15382;BME280;7789;51.364;12.358;2023-02-20T06:13:45;100748.53;;;8.98;100.00
15382;BME280;7789;51.364;12.358;2023-02-20T06:18:48;100751.22;;;9.09;100.00
15382;BME280;7789;51.364;12.358;2023-02-20T06:23:55;100744.03;;;9.13;100.00
15382;BME280;7789;51.364;12.358;2023-02-20T06:29:03;100737.25;;;8.98;100.00
15382;BME280;7789;51.364;12.358;2023-02-20T06:34:07;100708.53;;;8.87;99.00
15382;BME280;7789;51.364;12.358;2023-02-20T06:39:12;100706.63;;;8.89;98.98
15382;BME280;7789;51.364;12.358;2023-02-20T06:44:20;100712.66;;;8.89;98.08
15382;BME280;7789;51.364;12.358;2023-02-20T06:49:23;100726.84;;;8.85;97.23
15382;BME280;7789;51.364;12.358;2023-02-20T06:54:27;100749.38;;;8.86;96.39
15382;BME280;7789;51.364;12.358;2023-02-20T06:59:32;100719.13;;;8.84;95.10
15382;BME280;7789;51.364;12.358;2023-02-20T07:04:40;100718.53;;;8.80;95.08
15382;BME280;7789;51.364;12.358;2023-02-20T07:09:50;100711.13;;;8.74;95.04
15382;BME280;7789;51.364;12.358;2023-02-20T07:14:55;100727.81;;;8.72;95.34
15382;BME280;7789;51.364;12.358;2023-02-20T07:20:03;100720.81;;;8.72;95.91
15382;BME280;7789;51.364;12.358;2023-02-20T07:25:07;100713.94;;;8.71;95.11
15382;BME280;7789;51.364;12.358;2023-02-20T07:30:15;100691.09;;;8.75;95.27
15382;BME280;7789;51.364;12.358;2023-02-20T07:35:18;100690.47;;;8.84;95.18
15382;BME280;7789;51.364;12.358;2023-02-20T07:40:21;100692.63;;;9.02;94.50
15382;BME280;7789;51.364;12.358;2023-02-20T07:45:25;100705.50;;;9.28;93.52
15382;BME280;7789;51.364;12.358;2023-02-20T07:50:33;100663.19;;;9.94;90.66
15382;BME280;7789;51.364;12.358;2023-02-20T07:55:40;100658.28;;;10.02;89.86
15382;BME280;7789;51.364;12.358;2023-02-20T08:00:44;100637.94;;;9.94;89.33
15382;BME280;7789;51.364;12.358;2023-02-20T08:05:47;100628.53;;;9.92;89.22
15382;BME280;7789;51.364;12.358;2023-02-20T08:10:57;100638.03;;;9.93;88.74
15382;BME280;7789;51.364;12.358;2023-02-20T08:16:12;100628.31;;;9.95;88.12
15382;BME280;7789;51.364;12.358;2023-02-20T08:21:16;100642.81;;;9.99;88.05
15382;BME280;7789;51.364;12.358;2023-02-20T08:26:20;100611.66;;;10.08;87.41
15382;BME280;7789;51.364;12.358;2023-02-20T08:31:26;100611.31;;;10.13;86.52
15382;BME280;7789;51.364;12.358;2023-02-20T08:36:33;100607.75;;;10.14;86.60
15382;BME280;7789;51.364;12.358;2023-02-20T08:41:43;100608.94;;;10.21;86.71
15382;BME280;7789;51.364;12.358;2023-02-20T08:46:49;100606.94;;;10.24;86.39
15382;BME280;7789;51.364;12.358;2023-02-20T08:51:54;100604.69;;;10.31;86.79
15382;BME280;7789;51.364;12.358;2023-02-20T08:56:59;100616.91;;;10.41;86.70
15382;BME280;7789;51.364;12.358;2023-02-20T09:02:03;100615.38;;;10.50;86.01
15382;BME280;7789;51.364;12.358;2023-02-20T09:07:07;100613.94;;;10.57;86.04
15382;BME280;7789;51.364;12.358;2023-02-20T09:12:10;100616.56;;;10.68;84.97
15382;BME280;7789;51.364;12.358;2023-02-20T09:17:15;100624.72;;;10.85;84.71
15382;BME280;7789;51.364;12.358;2023-02-20T09:22:21;100610.09;;;10.94;83.87
15382;BME280;7789;51.364;12.358;2023-02-20T09:27:25;100604.13;;;11.02;83.22
15382;BME280;7789;51.364;12.358;2023-02-20T09:32:30;100616.84;;;11.07;82.90
15382;BME280;7789;51.364;12.358;2023-02-20T09:37:33;100609.22;;;11.15;81.56
15382;BME280;7789;51.364;12.358;2023-02-20T09:42:45;100599.69;;;11.25;80.67
15382;BME280;7789;51.364;12.358;2023-02-20T09:48:05;100611.75;;;11.37;80.15
15382;BME280;7789;51.364;12.358;2023-02-20T09:53:18;100599.44;;;11.48;78.54
15382;BME280;7789;51.364;12.358;2023-02-20T09:58:27;100601.16;;;11.70;77.76
15382;BME280;7789;51.364;12.358;2023-02-20T10:03:43;100582.84;;;11.90;77.08
15382;BME280;7789;51.364;12.358;2023-02-20T10:08:50;100565.31;;;12.11;76.76
15382;BME280;7789;51.364;12.358;2023-02-20T10:14:00;100560.75;;;12.43;75.70
15382;BME280;7789;51.364;12.358;2023-02-20T10:19:19;100553.91;;;12.61;74.13
15382;BME280;7789;51.364;12.358;2023-02-20T10:24:36;100530.06;;;12.74;72.40
15382;BME280;7789;51.364;12.358;2023-02-20T10:29:45;100509.38;;;12.80;71.32
15382;BME280;7789;51.364;12.358;2023-02-20T10:34:54;100495.56;;;12.88;70.96
15382;BME280;7789;51.364;12.358;2023-02-20T10:40:02;100484.41;;;12.95;69.13
15382;BME280;7789;51.364;12.358;2023-02-20T10:45:11;100473.25;;;13.02;68.99
15382;BME280;7789;51.364;12.358;2023-02-20T10:50:21;100472.53;;;13.19;68.76
15382;BME280;7789;51.364;12.358;2023-02-20T10:55:29;100464.91;;;13.35;68.63
15382;BME280;7789;51.364;12.358;2023-02-20T11:00:38;100463.94;;;13.46;68.21
15382;BME280;7789;51.364;12.358;2023-02-20T11:05:47;100468.59;;;13.52;67.94
15382;BME280;7789;51.364;12.358;2023-02-20T11:10:57;100462.63;;;13.69;67.62
15382;BME280;7789;51.364;12.358;2023-02-20T11:16:01;100463.44;;;13.79;66.02
15382;BME280;7789;51.364;12.358;2023-02-20T11:21:06;100454.44;;;13.81;66.25
15382;BME280;7789;51.364;12.358;2023-02-20T11:26:25;100436.72;;;13.83;65.35
15382;BME280;7789;51.364;12.358;2023-02-20T11:31:30;100416.22;;;13.87;65.42
15382;BME280;7789;51.364;12.358;2023-02-20T11:36:37;100385.91;;;13.92;64.69
15382;BME280;7789;51.364;12.358;2023-02-20T11:41:41;100381.06;;;13.97;65.45
15382;BME280;7789;51.364;12.358;2023-02-20T11:46:47;100360.84;;;13.98;64.90
15382;BME280;7789;51.364;12.358;2023-02-20T11:52:06;100352.09;;;14.07;64.25
15382;BME280;7789;51.364;12.358;2023-02-20T11:57:19;100362.75;;;14.05;64.44
15382;BME280;7789;51.364;12.358;2023-02-20T12:02:26;100348.59;;;14.16;64.95
15382;BME280;7789;51.364;12.358;2023-02-20T12:07:36;100338.31;;;14.22;64.88
15382;BME280;7789;51.364;12.358;2023-02-20T12:12:40;100331.13;;;14.15;64.81
15382;BME280;7789;51.364;12.358;2023-02-20T12:17:57;100339.47;;;14.10;64.61
15382;BME280;7789;51.364;12.358;2023-02-20T12:23:17;100331.97;;;14.15;65.53
15382;BME280;7789;51.364;12.358;2023-02-20T12:28:28;100322.00;;;14.19;64.97
15382;BME280;7789;51.364;12.358;2023-02-20T12:33:50;100324.34;;;14.12;64.76
15382;BME280;7789;51.364;12.358;2023-02-20T12:39:06;100329.91;;;14.09;65.10
15382;BME280;7789;51.364;12.358;2023-02-20T12:50:12;100318.81;;;14.15;65.82
15382;BME280;7789;51.364;12.358;2023-02-20T12:55:32;100296.84;;;14.16;66.29
15382;BME280;7789;51.364;12.358;2023-02-20T13:00:45;100308.16;;;14.17;66.74
15382;BME280;7789;51.364;12.358;2023-02-20T13:05:50;100307.44;;;14.24;67.25
15382;BME280;7789;51.364;12.358;2023-02-20T13:10:57;100298.13;;;14.30;67.73
15382;BME280;7789;51.364;12.358;2023-02-20T13:16:05;100302.53;;;14.47;68.52
15382;BME280;7789;51.364;12.358;2023-02-20T13:21:12;100308.69;;;14.55;68.00
15382;BME280;7789;51.364;12.358;2023-02-20T13:26:47;100299.19;;;14.62;68.55
15382;BME280;7789;51.364;12.358;2023-02-20T13:31:52;100286.13;;;14.70;69.02
15382;BME280;7789;51.364;12.358;2023-02-20T13:36:58;100278.28;;;14.78;68.53
15382;BME280;7789;51.364;12.358;2023-02-20T13:42:24;100276.03;;;14.83;68.55
15382;BME280;7789;51.364;12.358;2023-02-20T13:47:37;100269.09;;;14.82;69.03
15382;BME280;7789;51.364;12.358;2023-02-20T13:52:45;100256.22;;;14.79;68.92
15382;BME280;7789;51.364;12.358;2023-02-20T13:57:52;100262.69;;;14.84;69.15
15382;BME280;7789;51.364;12.358;2023-02-20T14:02:57;100275.50;;;14.80;69.60
15382;BME280;7789;51.364;12.358;2023-02-20T14:08:01;100265.78;;;14.80;69.44
15382;BME280;7789;51.364;12.358;2023-02-20T14:13:12;100281.88;;;14.77;70.27
15382;BME280;7789;51.364;12.358;2023-02-20T14:18:18;100277.59;;;14.76;70.95
15382;BME280;7789;51.364;12.358;2023-02-20T14:23:25;100260.13;;;14.67;70.41
15382;BME280;7789;51.364;12.358;2023-02-20T14:28:32;100262.38;;;14.62;71.25
15382;BME280;7789;51.364;12.358;2023-02-20T14:33:38;100246.22;;;14.57;71.40
15382;BME280;7789;51.364;12.358;2023-02-20T14:38:52;100253.59;;;14.54;71.87
15382;BME280;7789;51.364;12.358;2023-02-20T14:44:04;100245.19;;;14.50;72.04
15382;BME280;7789;51.364;12.358;2023-02-20T14:49:10;100243.22;;;14.52;72.54
15382;BME280;7789;51.364;12.358;2023-02-20T14:54:17;100237.81;;;14.54;73.13
15382;BME280;7789;51.364;12.358;2023-02-20T14:59:28;100244.72;;;14.55;74.01
15382;BME280;7789;51.364;12.358;2023-02-20T15:04:34;100253.75;;;14.52;73.86
15382;BME280;7789;51.364;12.358;2023-02-20T15:09:41;100270.13;;;14.46;74.33
15382;BME280;7789;51.364;12.358;2023-02-20T15:14:57;100275.88;;;14.42;75.16
15382;BME280;7789;51.364;12.358;2023-02-20T15:20:15;100285.50;;;14.33;74.98
15382;BME280;7789;51.364;12.358;2023-02-20T15:25:39;100292.53;;;14.33;75.49
15382;BME280;7789;51.364;12.358;2023-02-20T15:31:11;100306.00;;;14.30;76.30
15382;BME280;7789;51.364;12.358;2023-02-20T15:36:20;100295.94;;;14.25;76.17
15382;BME280;7789;51.364;12.358;2023-02-20T15:41:33;100302.47;;;14.21;76.61
15382;BME280;7789;51.364;12.358;2023-02-20T15:46:40;100300.38;;;14.25;76.85
15382;BME280;7789;51.364;12.358;2023-02-20T15:51:44;100304.25;;;14.21;77.32
15382;BME280;7789;51.364;12.358;2023-02-20T15:56:49;100301.81;;;14.19;77.14
15382;BME280;7789;51.364;12.358;2023-02-20T16:01:54;100317.16;;;14.14;77.92
15382;BME280;7789;51.364;12.358;2023-02-20T16:06:58;100323.25;;;14.15;78.45
15382;BME280;7789;51.364;12.358;2023-02-20T16:12:05;100295.44;;;14.12;78.35
15382;BME280;7789;51.364;12.358;2023-02-20T16:17:19;100302.16;;;14.07;78.65
15382;BME280;7789;51.364;12.358;2023-02-20T16:22:24;100302.47;;;13.94;78.64
15382;BME280;7789;51.364;12.358;2023-02-20T16:27:28;100309.69;;;13.92;79.28
15382;BME280;7789;51.364;12.358;2023-02-20T16:32:33;100318.47;;;13.83;79.63
15382;BME280;7789;51.364;12.358;2023-02-20T16:37:37;100322.88;;;13.83;79.53
15382;BME280;7789;51.364;12.358;2023-02-20T16:42:40;100335.06;;;13.84;79.64
15382;BME280;7789;51.364;12.358;2023-02-20T16:47:53;100343.91;;;13.83;80.47
15382;BME280;7789;51.364;12.358;2023-02-20T16:53:05;100370.41;;;13.72;82.24
15382;BME280;7789;51.364;12.358;2023-02-20T16:58:10;100363.97;;;13.57;82.43
15382;BME280;7789;51.364;12.358;2023-02-20T17:03:15;100388.34;;;13.40;83.25
15382;BME280;7789;51.364;12.358;2023-02-20T17:08:19;100390.56;;;13.35;84.03
15382;BME280;7789;51.364;12.358;2023-02-20T17:13:22;100397.66;;;13.25;84.37
15382;BME280;7789;51.364;12.358;2023-02-20T17:18:27;100411.09;;;13.12;83.79
15382;BME280;7789;51.364;12.358;2023-02-20T17:23:30;100417.28;;;12.93;81.79
15382;BME280;7789;51.364;12.358;2023-02-20T17:28:33;100403.34;;;12.83;81.20
15382;BME280;7789;51.364;12.358;2023-02-20T17:33:40;100417.81;;;12.77;80.77
15382;BME280;7789;51.364;12.358;2023-02-20T17:38:43;100409.00;;;12.69;80.78
15382;BME280;7789;51.364;12.358;2023-02-20T17:43:46;100402.94;;;12.68;80.85
15382;BME280;7789;51.364;12.358;2023-02-20T17:48:51;100396.00;;;12.58;80.58
15382;BME280;7789;51.364;12.358;2023-02-20T17:53:54;100393.94;;;12.52;81.45
15382;BME280;7789;51.364;12.358;2023-02-20T17:58:58;100384.00;;;12.46;81.60
15382;BME280;7789;51.364;12.358;2023-02-20T18:04:06;100391.69;;;12.38;82.60
15382;BME280;7789;51.364;12.358;2023-02-20T18:09:14;100394.47;;;12.36;82.24
15382;BME280;7789;51.364;12.358;2023-02-20T18:14:18;100402.59;;;12.33;82.93
15382;BME280;7789;51.364;12.358;2023-02-20T18:19:23;100403.72;;;12.31;83.10
15382;BME280;7789;51.364;12.358;2023-02-20T18:24:26;100409.75;;;12.31;83.54
15382;BME280;7789;51.364;12.358;2023-02-20T18:29:31;100404.09;;;12.26;83.42
15382;BME280;7789;51.364;12.358;2023-02-20T18:34:35;100387.97;;;12.21;83.72
15382;BME280;7789;51.364;12.358;2023-02-20T18:39:38;100400.38;;;12.19;84.00
15382;BME280;7789;51.364;12.358;2023-02-20T18:44:44;100379.66;;;12.16;84.03
15382;BME280;7789;51.364;12.358;2023-02-20T18:49:49;100378.13;;;12.04;84.47
15382;BME280;7789;51.364;12.358;2023-02-20T18:54:53;100378.41;;;12.01;84.67
15382;BME280;7789;51.364;12.358;2023-02-20T18:59:57;100364.59;;;11.99;84.62
15382;BME280;7789;51.364;12.358;2023-02-20T19:05:02;100378.81;;;11.97;85.16
15382;BME280;7789;51.364;12.358;2023-02-20T19:10:06;100389.56;;;11.94;85.33
15382;BME280;7789;51.364;12.358;2023-02-20T19:15:09;100383.88;;;11.89;85.79
15382;BME280;7789;51.364;12.358;2023-02-20T19:20:17;100377.94;;;11.87;86.72
15382;BME280;7789;51.364;12.358;2023-02-20T19:25:24;100380.41;;;11.79;86.62
15382;BME280;7789;51.364;12.358;2023-02-20T19:30:28;100384.13;;;11.76;87.75
15382;BME280;7789;51.364;12.358;2023-02-20T19:35:33;100392.50;;;11.70;87.77
15382;BME280;7789;51.364;12.358;2023-02-20T19:40:36;100403.69;;;11.72;87.86
15382;BME280;7789;51.364;12.358;2023-02-20T19:45:40;100409.59;;;11.74;88.30
15382;BME280;7789;51.364;12.358;2023-02-20T19:50:44;100410.56;;;11.73;88.12
15382;BME280;7789;51.364;12.358;2023-02-20T19:55:48;100400.63;;;11.67;88.90
15382;BME280;7789;51.364;12.358;2023-02-20T20:00:56;100403.63;;;11.42;89.32
15382;BME280;7789;51.364;12.358;2023-02-20T20:06:01;100388.41;;;11.27;89.55
15382;BME280;7789;51.364;12.358;2023-02-20T20:11:04;100382.72;;;11.22;89.66
15382;BME280;7789;51.364;12.358;2023-02-20T20:16:08;100386.75;;;11.26;90.67
15382;BME280;7789;51.364;12.358;2023-02-20T20:21:13;100372.00;;;11.25;90.66
15382;BME280;7789;51.364;12.358;2023-02-20T20:26:16;100365.34;;;11.21;91.07
15382;BME280;7789;51.364;12.358;2023-02-20T20:31:20;100352.41;;;11.19;91.85
15382;BME280;7789;51.364;12.358;2023-02-20T20:36:25;100334.81;;;11.01;92.68
15382;BME280;7789;51.364;12.358;2023-02-20T20:41:28;100345.38;;;10.90;93.23
15382;BME280;7789;51.364;12.358;2023-02-20T20:46:45;100364.91;;;10.96;93.60
15382;BME280;7789;51.364;12.358;2023-02-20T20:51:49;100354.78;;;11.02;94.50
15382;BME280;7789;51.364;12.358;2023-02-20T20:56:52;100358.25;;;11.02;94.38
15382;BME280;7789;51.364;12.358;2023-02-20T21:01:59;100355.25;;;11.07;94.23
15382;BME280;7789;51.364;12.358;2023-02-20T21:07:03;100356.63;;;11.11;93.32
15382;BME280;7789;51.364;12.358;2023-02-20T21:12:06;100351.16;;;11.14;93.03
15382;BME280;7789;51.364;12.358;2023-02-20T21:17:10;100344.69;;;11.18;93.66
15382;BME280;7789;51.364;12.358;2023-02-20T21:22:15;100346.22;;;11.20;93.73
15382;BME280;7789;51.364;12.358;2023-02-20T21:27:18;100339.19;;;11.21;93.30
15382;BME280;7789;51.364;12.358;2023-02-20T21:32:22;100331.22;;;11.22;92.75
15382;BME280;7789;51.364;12.358;2023-02-20T21:37:26;100324.19;;;11.23;92.74
15382;BME280;7789;51.364;12.358;2023-02-20T21:42:29;100322.28;;;11.25;92.16
15382;BME280;7789;51.364;12.358;2023-02-20T21:47:50;100318.28;;;11.30;92.07
15382;BME280;7789;51.364;12.358;2023-02-20T21:52:54;100321.06;;;11.29;91.16
15382;BME280;7789;51.364;12.358;2023-02-20T21:58:08;100318.19;;;11.32;91.03
15382;BME280;7789;51.364;12.358;2023-02-20T22:03:16;100319.72;;;11.34;90.00
15382;BME280;7789;51.364;12.358;2023-02-20T22:08:19;100312.56;;;11.36;90.49
15382;BME280;7789;51.364;12.358;2023-02-20T22:13:40;100322.19;;;11.36;90.86
15382;BME280;7789;51.364;12.358;2023-02-20T22:19:00;100334.56;;;11.34;90.48
15382;BME280;7789;51.364;12.358;2023-02-20T22:24:22;100331.16;;;11.33;90.28
15382;BME280;7789;51.364;12.358;2023-02-20T22:29:43;100332.53;;;11.37;90.74
15382;BME280;7789;51.364;12.358;2023-02-20T22:35:05;100325.66;;;11.36;91.30
15382;BME280;7789;51.364;12.358;2023-02-20T22:40:28;100320.25;;;11.38;90.32
15382;BME280;7789;51.364;12.358;2023-02-20T22:45:48;100314.34;;;11.36;90.86
15382;BME280;7789;51.364;12.358;2023-02-20T22:51:09;100306.09;;;11.40;90.19
15382;BME280;7789;51.364;12.358;2023-02-20T22:56:31;100303.19;;;11.43;90.20
15382;BME280;7789;51.364;12.358;2023-02-20T23:01:52;100305.69;;;11.45;90.83
15382;BME280;7789;51.364;12.358;2023-02-20T23:07:15;100297.84;;;11.45;90.66
15382;BME280;7789;51.364;12.358;2023-02-20T23:12:38;100297.84;;;11.45;90.04
15382;BME280;7789;51.364;12.358;2023-02-20T23:17:58;100295.09;;;11.46;90.95
15382;BME280;7789;51.364;12.358;2023-02-20T23:23:19;100304.75;;;11.46;91.55
15382;BME280;7789;51.364;12.358;2023-02-20T23:28:41;100305.31;;;11.49;91.16
15382;BME280;7789;51.364;12.358;2023-02-20T23:34:03;100298.38;;;11.48;91.98
15382;BME280;7789;51.364;12.358;2023-02-20T23:39:24;100308.06;;;11.48;92.14
15382;BME280;7789;51.364;12.358;2023-02-20T23:44:46;100305.56;;;11.46;93.19
15382;BME280;7789;51.364;12.358;2023-02-20T23:50:07;100310.66;;;11.48;92.81
15382;BME280;7789;51.364;12.358;2023-02-20T23:55:27;100318.53;;;11.48;93.23
